Taylor, Mississippi
Current Conditions -  °F | °C
As of 3:15 AM on Friday 19 Dec 2014 (Local Time) from KUOX Reporting Station
Overcast Overcast  
Wind Chill: 41°   Ceiling: 3400
Heat Index: 41°   Visibility: 10mi
Dew Point: 36°   Wind: 3mph
Humidity: 81%   Direction: 30°NNE
Pressure: 30.2"   Gusts: NA
Location:  34.27°N, 89.59°W
Report Text: KUOX 190915Z AUTO 03003KT 10SM OVC034 05/02 A3020 RMK AO2 PWINO PNO
Loading
Personal Weather Stations






























Interactive Weather Map New forecast layout! Learn more

10-Day Weather Forecast

Advertisements
Track Severe Weather on mobile